Time;durP1;ratioP1;P1;durP2;ratioP2;P2;SDS_P1;SDS_P2;PMS_P1;PMS_P2;Temp;Humidity;BMP_temperature;BMP_pressure;BME280_temperature;BME280_humidity;BME280_pressure;Samples;Min_cycle;Max_cycle;Signal;HPM_P1;HPM_P2
2022/03/13 00:00:19;;;;;;;4.20;2.00;;;11.60;99.90;;;;;;5022769;28;20050;-66
2022/03/13 00:02:45;;;;;;;;;;;11.60;99.90;;;;;;5024973;28;20095;-61
2022/03/13 00:05:14;;;;;;;5.65;2.72;;;11.60;99.90;;;;;;5037047;28;19921;-61
2022/03/13 00:07:41;;;;;;;5.97;2.17;;;11.60;99.90;;;;;;5039342;28;20501;-61
2022/03/13 00:10:07;;;;;;;3.60;2.20;;;11.60;99.90;;;;;;5021555;28;20030;-60
2022/03/13 00:12:35;;;;;;;3.85;1.98;;;11.60;99.90;;;;;;5020586;28;20065;-61
2022/03/13 00:15:03;;;;;;;4.05;2.20;;;11.60;99.90;;;;;;5022905;28;22684;-60
2022/03/13 00:17:29;;;;;;;8.32;2.20;;;11.60;99.90;;;;;;5022968;28;20488;-62
2022/03/13 00:20:00;;;;;;;5.57;1.88;;;11.60;99.90;;;;;;5021501;28;20033;-63
2022/03/13 00:22:35;;;;;;;4.03;1.70;;;11.70;99.90;;;;;;5023195;28;20038;-63
2022/03/13 00:25:08;;;;;;;4.97;2.28;;;11.70;99.90;;;;;;5022635;28;20037;-61
2022/03/13 00:27:34;;;;;;;4.20;1.75;;;11.70;99.90;;;;;;5024418;28;20048;-61
2022/03/13 00:30:01;;;;;;;7.90;2.75;;;11.80;99.90;;;;;;5025291;28;20477;-61
2022/03/13 00:32:27;;;;;;;5.05;2.10;;;11.70;99.90;;;;;;5022247;28;20052;-61
2022/03/13 00:34:53;;;;;;;6.10;1.85;;;11.70;99.90;;;;;;5021141;28;20477;-62
2022/03/13 00:37:18;;;;;;;4.70;1.90;;;11.70;99.90;;;;;;5020717;28;20085;-61
2022/03/13 00:39:46;;;;;;;5.47;2.10;;;11.70;99.90;;;;;;5023677;28;20034;-60
2022/03/13 00:42:15;;;;;;;6.55;2.00;;;11.70;99.90;;;;;;5021074;28;20045;-61
2022/03/13 00:44:42;;;;;;;3.53;1.80;;;11.70;99.90;;;;;;5023919;28;20111;-61
2022/03/13 00:47:07;;;;;;;5.85;2.60;;;11.70;99.90;;;;;;5020175;28;20058;-63
2022/03/13 00:49:33;;;;;;;3.92;1.83;;;11.70;99.90;;;;;;5020850;28;20649;-61
2022/03/13 00:52:01;;;;;;;4.13;2.00;;;11.60;99.90;;;;;;5021056;28;20033;-62
2022/03/13 00:54:27;;;;;;;5.25;2.17;;;11.60;99.90;;;;;;5018985;28;20037;-60
2022/03/13 00:56:56;;;;;;;5.85;2.38;;;11.60;99.90;;;;;;5024088;28;20037;-62
2022/03/13 00:59:22;;;;;;;4.65;2.45;;;11.60;99.90;;;;;;5019987;28;20029;-60
2022/03/13 01:01:48;;;;;;;6.40;2.63;;;11.60;99.90;;;;;;5019842;28;20030;-60
2022/03/13 01:04:14;;;;;;;5.90;2.78;;;11.60;99.90;;;;;;5038451;28;20164;-60
2022/03/13 01:06:41;;;;;;;6.50;3.03;;;11.50;99.90;;;;;;5019827;28;20141;-61
2022/03/13 01:09:06;;;;;;;6.10;2.72;;;11.50;99.90;;;;;;5020928;28;20030;-60
2022/03/13 01:11:32;;;;;;;7.43;2.40;;;11.50;99.90;;;;;;5020810;28;20037;-60
2022/03/13 01:13:58;;;;;;;9.02;2.20;;;11.50;99.90;;;;;;5020711;28;20026;-61
2022/03/13 01:16:39;;;;;;;8.10;2.40;;;11.50;99.90;;;;;;5021896;28;20030;-61
2022/03/13 01:19:05;;;;;;;6.75;2.47;;;11.50;99.90;;;;;;5022374;28;20047;-61
2022/03/13 01:21:34;;;;;;;5.13;2.63;;;11.50;99.90;;;;;;5019210;28;20092;-61
2022/03/13 01:23:59;;;;;;;3.47;1.90;;;11.50;99.90;;;;;;5021543;28;20026;-61
2022/03/13 01:26:25;;;;;;;4.22;2.10;;;11.50;99.90;;;;;;5021651;28;20041;-61
2022/03/13 01:28:52;;;;;;;5.10;2.30;;;11.50;99.90;;;;;;5020225;28;20048;-61
2022/03/13 01:31:22;;;;;;;5.28;2.40;;;11.50;99.90;;;;;;5022083;28;20037;-60
2022/03/13 01:33:48;;;;;;;5.97;2.40;;;11.50;99.90;;;;;;5019634;28;20044;-60
2022/03/13 01:36:13;;;;;;;5.53;2.50;;;11.40;99.90;;;;;;5022956;28;20037;-61
2022/03/13 01:38:40;;;;;;;8.35;1.88;;;11.40;99.90;;;;;;5019557;28;20466;-62
2022/03/13 01:41:06;;;;;;;7.10;3.30;;;11.40;99.90;;;;;;5021847;28;20082;-64
2022/03/13 01:43:32;;;;;;;5.78;2.17;;;11.40;99.90;;;;;;5024896;28;20490;-61
2022/03/13 01:46:02;;;;;;;6.05;2.50;;;11.40;99.90;;;;;;5020379;28;20048;-61
2022/03/13 01:48:30;;;;;;;5.13;2.35;;;11.40;99.90;;;;;;5021664;28;20501;-62
2022/03/13 01:50:56;;;;;;;6.22;2.10;;;11.40;99.90;;;;;;5019831;28;20076;-61
2022/03/13 01:53:23;;;;;;;7.10;1.92;;;11.30;99.90;;;;;;5020888;28;20021;-62
2022/03/13 01:55:49;;;;;;;3.33;1.83;;;11.30;99.90;;;;;;5021442;28;20083;-62
2022/03/13 01:58:15;;;;;;;3.65;1.85;;;11.30;99.90;;;;;;5022099;28;20470;-61
2022/03/13 02:00:41;;;;;;;4.82;1.77;;;11.30;99.90;;;;;;5024526;28;20616;-62
2022/03/13 02:03:07;;;;;;;3.47;1.70;;;11.30;99.90;;;;;;5018251;28;20117;-61
2022/03/13 02:05:35;;;;;;;3.38;1.58;;;11.20;99.90;;;;;;5021560;28;20137;-61
2022/03/13 02:08:12;;;;;;;5.10;1.50;;;11.20;99.90;;;;;;5019400;28;20030;-61
2022/03/13 02:10:38;;;;;;;3.42;1.30;;;11.20;99.90;;;;;;5022473;28;20108;-61
2022/03/13 02:13:04;;;;;;;2.45;1.00;;;11.10;99.90;;;;;;5021155;28;20470;-61
2022/03/13 02:15:32;;;;;;;3.30;1.58;;;11.10;99.90;;;;;;5019607;28;20560;-63
2022/03/13 02:18:00;;;;;;;2.22;1.40;;;11.10;99.90;;;;;;5021053;28;20042;-62
2022/03/13 02:20:27;;;;;;;2.78;1.17;;;11.00;99.90;;;;;;5019653;28;20051;-62
2022/03/13 02:22:59;;;;;;;3.10;1.30;;;11.00;99.90;;;;;;5018489;28;20033;-61
2022/03/13 02:25:25;;;;;;;2.80;1.40;;;11.10;99.90;;;;;;5018986;28;20088;-62
2022/03/13 02:27:51;;;;;;;2.15;1.20;;;11.00;99.90;;;;;;5019734;28;20089;-63
2022/03/13 02:30:24;;;;;;;2.67;1.15;;;11.10;99.90;;;;;;5035941;28;20033;-62
2022/03/13 02:32:50;;;;;;;3.40;1.50;;;11.00;99.90;;;;;;5017806;28;20040;-62
2022/03/13 02:35:17;;;;;;;2.55;1.25;;;11.00;99.90;;;;;;5019575;28;20437;-62
2022/03/13 02:37:43;;;;;;;2.58;1.20;;;11.00;99.90;;;;;;5021220;28;20561;-63
2022/03/13 02:40:20;;;;;;;3.90;1.50;;;11.00;99.90;;;;;;5017988;28;20113;-62
2022/03/13 02:42:45;;;;;;;3.53;1.73;;;11.00;99.90;;;;;;5026053;28;20115;-62
2022/03/13 02:45:21;;;;;;;4.80;1.50;;;11.00;99.90;;;;;;5018482;28;20058;-61
2022/03/13 02:47:47;;;;;;;5.25;2.00;;;10.90;99.90;;;;;;5019200;28;20103;-61
2022/03/13 02:50:12;;;;;;;3.83;1.85;;;10.90;99.90;;;;;;5021133;28;20065;-62
2022/03/13 02:52:39;;;;;;;3.28;1.50;;;10.90;99.90;;;;;;5021753;28;20030;-61
2022/03/13 02:55:05;;;;;;;2.47;1.35;;;10.90;99.90;;;;;;5017811;28;20092;-61
2022/03/13 02:57:30;;;;;;;3.47;1.80;;;10.80;99.90;;;;;;5020714;28;20111;-61
2022/03/13 02:59:56;;;;;;;4.03;1.85;;;10.80;99.90;;;;;;5033024;28;20497;-62
2022/03/13 03:02:22;;;;;;;5.88;2.08;;;10.90;99.90;;;;;;5017990;28;20112;-63
2022/03/13 03:04:53;;;;;;;4.00;1.80;;;10.80;99.90;;;;;;5018940;28;20057;-63
2022/03/13 03:07:19;;;;;;;4.65;1.80;;;10.80;99.90;;;;;;5019738;28;20030;-62
2022/03/13 03:09:44;;;;;;;4.35;2.05;;;10.80;99.90;;;;;;5018653;28;20033;-62
2022/03/13 03:12:10;;;;;;;5.60;2.42;;;10.70;99.90;;;;;;5019864;28;20026;-62
2022/03/13 03:14:35;;;;;;;5.72;1.85;;;10.70;99.90;;;;;;5018644;28;20194;-61
2022/03/13 03:17:01;;;;;;;5.30;1.77;;;10.70;99.90;;;;;;5019354;28;20025;-61
2022/03/13 03:19:27;;;;;;;5.05;2.20;;;10.80;99.90;;;;;;5019021;28;20120;-62
2022/03/13 03:21:53;;;;;;;8.65;1.98;;;10.70;99.90;;;;;;5019573;28;20030;-63
2022/03/13 03:24:22;;;;;;;5.55;2.38;;;10.70;99.90;;;;;;5018487;28;20041;-61
2022/03/13 03:26:48;;;;;;;5.18;2.70;;;10.60;99.90;;;;;;5018928;28;20030;-61
2022/03/13 03:29:14;;;;;;;5.53;2.05;;;10.60;99.90;;;;;;5020339;28;20050;-63
2022/03/13 03:31:43;;;;;;;7.07;2.50;;;10.60;99.90;;;;;;5016688;28;20030;-61
2022/03/13 03:34:16;;;;;;;6.50;2.35;;;10.50;99.90;;;;;;5020556;28;20074;-63
2022/03/13 03:36:47;;;;;;;6.55;3.45;;;10.50;99.90;;;;;;5018607;28;20038;-63
2022/03/13 03:39:15;;;;;;;4.72;2.22;;;10.40;99.90;;;;;;5020025;28;20037;-61
2022/03/13 03:41:42;;;;;;;5.05;2.53;;;10.40;99.90;;;;;;5019600;28;20034;-63
2022/03/13 03:44:08;;;;;;;4.05;2.58;;;10.40;99.90;;;;;;5022015;28;20065;-63
2022/03/13 03:46:34;;;;;;;4.05;1.98;;;10.30;99.90;;;;;;5022293;28;20061;-63
2022/03/13 03:49:00;;;;;;;7.90;1.92;;;10.30;99.90;;;;;;5018170;28;20113;-61
2022/03/13 03:51:26;;;;;;;5.03;2.42;;;10.30;99.90;;;;;;5019953;28;20141;-62
2022/03/13 03:53:51;;;;;;;5.63;3.20;;;10.20;99.90;;;;;;5018740;28;20044;-62
2022/03/13 03:56:17;;;;;;;5.90;2.55;;;10.20;99.90;;;;;;5019460;28;20030;-62
2022/03/13 03:58:43;;;;;;;7.80;2.42;;;10.20;99.90;;;;;;5035358;28;20113;-62
2022/03/13 04:01:09;;;;;;;5.32;2.38;;;10.20;99.90;;;;;;5016151;28;20069;-62
2022/03/13 04:03:34;;;;;;;5.43;2.40;;;10.30;99.90;;;;;;5020634;28;20555;-61
2022/03/13 04:06:00;;;;;;;4.45;2.20;;;10.20;99.90;;;;;;5017354;28;20041;-61
2022/03/13 04:08:25;;;;;;;4.65;2.38;;;10.20;99.90;;;;;;5020019;28;20037;-61
2022/03/13 04:10:51;;;;;;;6.38;2.58;;;10.20;99.90;;;;;;5017717;28;20033;-61
2022/03/13 04:13:18;;;;;;;4.53;2.00;;;10.10;99.90;;;;;;5017447;28;20030;-61
2022/03/13 04:15:44;;;;;;;7.47;2.78;;;10.00;99.90;;;;;;5019584;28;20087;-61
2022/03/13 04:18:10;;;;;;;3.88;1.92;;;10.00;99.90;;;;;;5017391;28;20125;-61
2022/03/13 04:20:36;;;;;;;4.65;2.33;;;10.00;99.90;;;;;;5035070;28;20057;-61
2022/03/13 04:23:02;;;;;;;6.75;2.05;;;10.00;99.90;;;;;;5018165;28;20038;-62
2022/03/13 04:25:28;;;;;;;4.65;2.20;;;10.00;99.90;;;;;;5024350;28;20512;-63
2022/03/13 04:27:58;;;;;;;3.67;2.20;;;10.00;99.90;;;;;;5052836;28;20038;-62
2022/03/13 04:30:25;;;;;;;;;;;9.90;99.90;;;;;;5023976;28;20040;-61
2022/03/13 04:32:51;;;;;;;5.35;2.50;;;10.00;99.90;;;;;;5020861;28;20281;-61
2022/03/13 04:35:16;;;;;;;4.60;2.10;;;10.00;99.90;;;;;;5022527;28;20030;-61
2022/03/13 04:37:42;;;;;;;4.15;2.15;;;10.00;99.90;;;;;;5022751;28;20501;-63
2022/03/13 04:40:09;;;;;;;5.93;2.40;;;10.00;99.90;;;;;;5019322;28;20057;-62
2022/03/13 04:42:34;;;;;;;7.55;3.10;;;10.00;99.90;;;;;;5023427;28;20037;-61
2022/03/13 04:45:01;;;;;;;4.25;2.42;;;10.00;99.90;;;;;;5023566;28;20026;-62
2022/03/13 04:47:31;;;;;;;5.13;2.42;;;10.00;99.90;;;;;;5020306;28;20602;-61
2022/03/13 04:49:57;;;;;;;3.70;2.20;;;10.00;99.90;;;;;;5023267;28;20034;-63
2022/03/13 04:52:22;;;;;;;5.20;2.17;;;10.00;99.90;;;;;;5020664;28;20092;-62
2022/03/13 04:54:48;;;;;;;8.10;3.08;;;10.00;99.90;;;;;;5022160;28;20439;-62
2022/03/13 04:57:14;;;;;;;5.18;2.40;;;10.00;99.90;;;;;;5022157;28;20374;-61
2022/03/13 04:59:40;;;;;;;6.28;3.13;;;10.00;99.90;;;;;;5020074;28;20038;-61
2022/03/13 05:02:05;;;;;;;8.43;3.10;;;10.00;99.90;;;;;;5022020;28;20117;-61
2022/03/13 05:04:34;;;;;;;6.90;2.85;;;10.00;99.90;;;;;;5020089;28;20038;-62
2022/03/13 05:07:00;;;;;;;6.13;2.80;;;10.00;99.90;;;;;;5023303;28;20513;-61
2022/03/13 05:09:25;;;;;;;8.15;3.28;;;9.90;99.90;;;;;;5022425;28;20042;-61
2022/03/13 05:11:51;;;;;;;10.23;3.67;;;9.90;99.90;;;;;;5021797;28;20116;-61
2022/03/13 05:14:17;;;;;;;11.85;3.67;;;9.90;99.90;;;;;;5022667;28;20045;-62
2022/03/13 05:16:43;;;;;;;9.70;4.18;;;9.90;99.90;;;;;;5036450;28;20037;-62
2022/03/13 05:19:09;;;;;;;11.40;4.53;;;9.90;99.90;;;;;;5020445;28;20038;-61
2022/03/13 05:21:36;;;;;;;9.98;4.32;;;9.80;99.90;;;;;;5022113;28;20049;-61
2022/03/13 05:24:01;;;;;;;9.73;5.38;;;9.80;99.90;;;;;;5019425;28;20505;-62
2022/03/13 05:26:27;;;;;;;8.35;4.22;;;9.80;99.90;;;;;;5023018;28;20132;-62
2022/03/13 05:28:53;;;;;;;10.25;4.43;;;9.70;99.90;;;;;;5034530;28;20079;-63
2022/03/13 05:31:19;;;;;;;15.90;4.55;;;9.70;99.90;;;;;;5022268;28;20042;-62
2022/03/13 05:33:44;;;;;;;8.70;4.85;;;9.70;99.90;;;;;;5020026;28;20532;-62
2022/03/13 05:36:10;;;;;;;11.68;5.80;;;9.60;99.90;;;;;;5020385;28;20088;-62
2022/03/13 05:38:37;;;;;;;15.65;6.50;;;9.70;99.90;;;;;;5021929;28;20125;-61
2022/03/13 05:41:04;;;;;;;10.63;5.13;;;9.70;99.90;;;;;;5019173;28;20481;-61
2022/03/13 05:43:31;;;;;;;9.45;4.70;;;9.70;99.90;;;;;;5030572;28;20038;-62
2022/03/13 05:45:56;;;;;;;11.93;5.07;;;9.70;99.90;;;;;;5019042;28;20029;-62
2022/03/13 05:48:22;;;;;;;13.90;6.75;;;9.70;99.90;;;;;;5021243;28;20036;-62
2022/03/13 05:50:48;;;;;;;11.90;6.03;;;9.60;99.90;;;;;;5018054;28;20069;-63
2022/03/13 05:53:14;;;;;;;17.52;5.97;;;9.70;99.90;;;;;;5020498;28;20033;-62
2022/03/13 05:55:40;;;;;;;13.57;6.13;;;9.60;99.90;;;;;;5020471;28;20498;-62
2022/03/13 05:58:06;;;;;;;13.52;5.38;;;9.60;99.90;;;;;;5021079;28;20140;-61
2022/03/13 06:00:32;;;;;;;14.23;6.35;;;9.60;99.90;;;;;;5017707;28;20038;-64
2022/03/13 06:02:59;;;;;;;15.30;6.05;;;9.60;99.90;;;;;;5022069;28;20065;-62
2022/03/13 06:05:25;;;;;;;16.83;6.30;;;9.60;99.90;;;;;;5025517;28;20040;-61
2022/03/13 06:07:51;;;;;;;14.63;5.95;;;9.60;99.90;;;;;;5021595;28;20026;-63
2022/03/13 06:10:17;;;;;;;13.98;6.18;;;9.60;99.90;;;;;;5021133;28;20034;-63
2022/03/13 06:12:43;;;;;;;12.30;6.05;;;9.60;99.90;;;;;;5019736;28;20436;-62
2022/03/13 06:15:11;;;;;;;12.20;5.90;;;9.60;99.90;;;;;;5018663;28;20025;-63
2022/03/13 06:17:48;;;;;;;13.23;6.13;;;9.60;99.90;;;;;;5019602;28;20072;-62
2022/03/13 06:20:15;;;;;;;13.10;5.55;;;9.60;99.90;;;;;;5022194;28;20063;-62
2022/03/13 06:22:43;;;;;;;10.40;5.63;;;9.60;99.90;;;;;;5020643;28;20088;-62
2022/03/13 06:25:10;;;;;;;19.05;6.25;;;9.60;99.90;;;;;;5019911;28;20825;-63
2022/03/13 06:27:37;;;;;;;11.55;5.72;;;9.60;99.90;;;;;;5018911;28;20049;-62
2022/03/13 06:30:11;;;;;;;13.98;5.93;;;9.60;99.90;;;;;;5017502;28;20026;-63
2022/03/13 06:32:37;;;;;;;13.30;6.95;;;9.50;99.90;;;;;;4999703;28;20541;-63
2022/03/13 06:35:03;;;;;;;16.67;6.82;;;9.50;99.90;;;;;;5018923;28;20116;-62
2022/03/13 06:37:29;;;;;;;14.70;6.72;;;9.40;99.90;;;;;;5021560;28;20528;-61
2022/03/13 06:39:54;;;;;;;13.88;6.20;;;9.50;99.90;;;;;;5017298;28;20030;-61
2022/03/13 06:42:20;;;;;;;12.10;5.75;;;9.40;99.90;;;;;;5018252;28;20080;-61
2022/03/13 06:44:46;;;;;;;14.23;6.53;;;9.50;99.90;;;;;;5021197;28;20029;-66
2022/03/13 06:47:11;;;;;;;13.88;6.68;;;9.50;99.90;;;;;;5033982;28;20084;-61
2022/03/13 06:49:37;;;;;;;14.32;5.72;;;9.50;99.90;;;;;;5019695;28;20026;-62
2022/03/13 06:52:03;;;;;;;13.40;6.32;;;9.50;99.90;;;;;;5020074;28;20505;-64
2022/03/13 06:54:28;;;;;;;12.60;6.43;;;9.50;99.90;;;;;;5017408;28;20091;-63
2022/03/13 06:56:54;;;;;;;14.45;6.60;;;9.50;99.90;;;;;;5021270;28;20030;-61
2022/03/13 06:59:19;;;;;;;14.18;6.20;;;9.50;99.90;;;;;;5021866;28;20040;-61
2022/03/13 07:01:46;;;;;;;14.73;6.25;;;9.60;99.90;;;;;;5018639;28;20042;-61
2022/03/13 07:04:12;;;;;;;13.52;6.40;;;9.60;99.90;;;;;;5018713;28;20414;-61
2022/03/13 07:06:38;;;;;;;15.40;6.75;;;9.60;99.90;;;;;;5024022;28;20044;-59
2022/03/13 07:09:04;;;;;;;16.02;7.57;;;9.60;99.90;;;;;;5023343;28;20038;-65
2022/03/13 07:11:32;;;;;;;15.98;6.63;;;9.60;99.90;;;;;;5018603;28;20038;-63
2022/03/13 07:13:58;;;;;;;13.40;6.38;;;9.70;99.90;;;;;;5016758;28;20029;-62
2022/03/13 07:16:24;;;;;;;14.20;6.63;;;9.70;99.90;;;;;;5019846;28;20029;-62
2022/03/13 07:18:50;;;;;;;16.33;6.85;;;9.70;99.90;;;;;;5021743;28;20117;-62
2022/03/13 07:21:15;;;;;;;14.20;6.93;;;9.70;99.90;;;;;;5020450;28;20124;-62
2022/03/13 07:23:41;;;;;;;11.10;5.70;;;9.80;99.90;;;;;;5018721;28;20415;-62
2022/03/13 07:26:07;;;;;;;14.48;6.50;;;9.80;99.90;;;;;;5019252;28;20490;-62
2022/03/13 07:28:32;;;;;;;17.10;6.40;;;9.90;99.90;;;;;;5051999;28;20045;-62
2022/03/13 07:30:58;;;;;;;13.48;6.13;;;9.90;99.90;;;;;;5018060;28;20669;-62
2022/03/13 07:33:24;;;;;;;14.98;6.90;;;9.90;99.90;;;;;;5021159;28;20036;-62
2022/03/13 07:35:50;;;;;;;13.38;6.03;;;10.00;99.90;;;;;;5017528;28;20033;-62
2022/03/13 07:38:15;;;;;;;22.38;8.32;;;10.00;99.90;;;;;;5020816;28;20033;-62
2022/03/13 07:40:42;;;;;;;14.68;6.25;;;10.00;99.90;;;;;;5018596;28;20045;-61
2022/03/13 07:43:07;;;;;;;14.07;6.22;;;10.10;99.90;;;;;;5026002;28;20026;-61
2022/03/13 07:45:33;;;;;;;13.27;5.90;;;10.20;99.90;;;;;;5027379;28;20037;-62
2022/03/13 07:47:59;;;;;;;15.95;5.63;;;10.20;99.90;;;;;;5019937;28;20026;-61
2022/03/13 07:50:27;;;;;;;14.80;6.00;;;10.20;99.90;;;;;;5017776;28;20121;-62
2022/03/13 07:52:52;;;;;;;12.93;5.97;;;10.30;99.90;;;;;;5020422;28;20383;-63
2022/03/13 07:55:18;;;;;;;12.95;5.70;;;10.40;99.90;;;;;;5019370;28;20041;-62
2022/03/13 07:57:44;;;;;;;13.23;6.32;;;10.40;99.90;;;;;;5029120;28;20435;-62
2022/03/13 08:00:15;;;;;;;14.30;5.93;;;10.50;99.90;;;;;;5024440;28;20033;-61
2022/03/13 08:02:44;;;;;;;12.60;6.22;;;10.60;99.90;;;;;;5023956;28;20034;-63
2022/03/13 08:05:10;;;;;;;15.38;6.40;;;10.70;99.90;;;;;;5020060;28;20032;-61
2022/03/13 08:07:36;;;;;;;11.80;6.03;;;10.90;99.90;;;;;;5022391;28;20502;-64
2022/03/13 08:10:02;;;;;;;15.02;6.38;;;10.90;99.90;;;;;;5022353;28;20061;-63
2022/03/13 08:12:27;;;;;;;12.63;5.82;;;11.00;99.90;;;;;;5021574;28;20029;-63
2022/03/13 08:14:53;;;;;;;12.57;6.03;;;11.10;99.90;;;;;;5021733;28;20034;-62
2022/03/13 08:17:18;;;;;;;13.35;6.40;;;11.20;99.90;;;;;;5020558;28;20033;-61
2022/03/13 08:19:44;;;;;;;11.77;5.63;;;11.30;99.90;;;;;;5023985;28;20115;-61
2022/03/13 08:22:10;;;;;;;13.25;5.75;;;11.50;99.90;;;;;;5018600;28;20041;-61
2022/03/13 08:24:35;;;;;;;12.90;6.20;;;11.50;99.90;;;;;;5021821;28;20116;-61
2022/03/13 08:27:01;;;;;;;19.50;6.30;;;11.50;99.90;;;;;;5022580;28;20037;-62
2022/03/13 08:29:26;;;;;;;12.73;5.85;;;11.60;99.90;;;;;;5020082;28;20042;-62
2022/03/13 08:31:52;;;;;;;10.50;5.47;;;11.60;99.90;;;;;;5019774;28;20552;-65
2022/03/13 08:34:17;;;;;;;20.02;6.47;;;11.70;99.90;;;;;;5021566;28;20037;-62
2022/03/13 08:36:44;;;;;;;18.65;6.15;;;11.70;99.90;;;;;;5020694;28;20025;-63
2022/03/13 08:39:09;;;;;;;12.55;5.97;;;11.70;99.90;;;;;;5022979;28;20651;-63
2022/03/13 08:41:36;;;;;;;11.93;5.50;;;11.70;99.90;;;;;;5021959;28;20041;-62
2022/03/13 08:44:02;;;;;;;13.73;6.22;;;11.70;99.90;;;;;;5024109;28;20517;-62
2022/03/13 08:46:27;;;;;;;16.25;5.45;;;11.60;99.90;;;;;;5020231;28;20107;-61
2022/03/13 08:48:53;;;;;;;13.38;6.45;;;11.60;99.90;;;;;;5019976;28;20512;-64
2022/03/13 08:51:21;;;;;;;13.05;6.45;;;11.40;99.90;;;;;;5022242;28;20383;-62
2022/03/13 08:53:47;;;;;;;12.73;6.30;;;11.50;99.90;;;;;;5018399;28;20038;-61
2022/03/13 08:56:13;;;;;;;13.18;6.22;;;11.70;99.90;;;;;;5022838;28;20393;-65
2022/03/13 08:58:43;;;;;;;14.75;6.20;;;11.90;99.90;;;;;;5023173;28;20044;-63
2022/03/13 09:01:09;;;;;;;14.10;6.10;;;12.10;99.90;;;;;;5021089;28;20389;-63
2022/03/13 09:03:35;;;;;;;12.60;5.75;;;12.30;99.10;;;;;;5025924;28;20056;-62
2022/03/13 09:06:01;;;;;;;15.30;6.50;;;12.40;99.00;;;;;;5025678;28;20068;-64
2022/03/13 09:08:27;;;;;;;11.55;5.50;;;12.40;98.80;;;;;;5026580;28;20033;-63
2022/03/13 09:10:52;;;;;;;11.52;5.88;;;12.30;98.40;;;;;;5024529;28;20030;-63
2022/03/13 09:13:20;;;;;;;13.38;5.82;;;12.40;98.40;;;;;;5018694;28;20662;-64
2022/03/13 09:15:46;;;;;;;13.13;5.78;;;12.30;98.90;;;;;;5018428;28;20391;-61
2022/03/13 09:18:13;;;;;;;15.30;6.05;;;12.40;98.90;;;;;;5020298;28;20025;-62
2022/03/13 09:20:39;;;;;;;12.10;5.57;;;12.50;98.50;;;;;;5017876;28;20397;-63
2022/03/13 09:23:06;;;;;;;12.60;5.43;;;12.60;97.90;;;;;;5019471;28;20032;-62
2022/03/13 09:25:32;;;;;;;13.93;5.95;;;12.60;97.80;;;;;;5020822;28;20058;-61
2022/03/13 09:27:58;;;;;;;14.80;5.50;;;12.70;97.70;;;;;;5020050;28;20028;-61
2022/03/13 09:30:24;;;;;;;22.58;5.63;;;12.60;97.20;;;;;;5019261;28;20034;-61
2022/03/13 09:32:50;;;;;;;10.77;6.00;;;12.70;97.20;;;;;;5020730;28;20113;-63
2022/03/13 09:35:16;;;;;;;14.60;6.13;;;12.70;97.40;;;;;;5018421;28;20029;-62
2022/03/13 09:37:42;;;;;;;10.10;5.75;;;12.80;97.10;;;;;;5021945;28;20656;-62
2022/03/13 09:40:09;;;;;;;15.93;6.00;;;12.80;96.70;;;;;;5025142;28;20033;-62
2022/03/13 09:42:35;;;;;;;10.13;5.30;;;12.80;96.90;;;;;;5024022;28;20041;-63
2022/03/13 09:45:01;;;;;;;14.40;5.78;;;12.80;96.30;;;;;;5019070;28;20035;-62
2022/03/13 09:47:28;;;;;;;12.15;5.40;;;12.80;96.60;;;;;;5019741;28;20117;-63
2022/03/13 09:49:54;;;;;;;11.95;5.40;;;12.70;96.20;;;;;;5019268;28;20036;-63
2022/03/13 09:52:20;;;;;;;11.70;5.55;;;12.80;95.80;;;;;;5018912;28;20033;-63
2022/03/13 09:54:45;;;;;;;14.35;6.18;;;12.90;96.60;;;;;;5021409;28;20033;-62
2022/03/13 09:57:11;;;;;;;11.52;6.15;;;13.00;95.70;;;;;;5017709;28;20505;-62
2022/03/13 09:59:37;;;;;;;14.90;5.78;;;13.00;95.80;;;;;;5021939;28;20466;-62
2022/03/13 10:02:07;;;;;;;14.85;6.07;;;13.00;94.80;;;;;;5019605;28;20717;-62
2022/03/13 10:04:33;;;;;;;14.52;5.43;;;13.10;94.80;;;;;;5019579;28;20034;-63
2022/03/13 10:07:12;;;;;;;10.30;4.97;;;13.10;94.80;;;;;;5014948;28;20563;-64
2022/03/13 10:09:40;;;;;;;13.70;6.05;;;13.10;94.70;;;;;;5023574;28;20116;-63
2022/03/13 10:12:11;;;;;;;14.77;5.97;;;13.20;94.10;;;;;;5017578;28;20473;-60
2022/03/13 10:14:39;;;;;;;10.57;5.20;;;13.20;94.40;;;;;;5019155;28;20033;-61
2022/03/13 10:17:13;;;;;;;15.15;6.00;;;13.20;94.10;;;;;;5016475;28;20034;-62
2022/03/13 10:19:38;;;;;;;16.45;6.50;;;13.40;94.50;;;;;;5021528;28;20037;-63
2022/03/13 10:22:05;;;;;;;14.73;6.80;;;13.50;94.30;;;;;;5021073;28;20030;-63
2022/03/13 10:24:42;;;;;;;12.10;5.70;;;13.60;93.60;;;;;;5019293;28;20041;-62
2022/03/13 10:27:20;;;;;;;11.00;5.65;;;13.60;93.40;;;;;;5014263;28;20034;-63
2022/03/13 10:29:47;;;;;;;12.52;6.22;;;13.60;93.20;;;;;;5019074;28;20029;-64
2022/03/13 10:32:14;;;;;;;14.38;6.15;;;13.50;93.50;;;;;;5015240;28;20029;-61
2022/03/13 10:34:40;;;;;;;9.73;5.35;;;13.60;93.70;;;;;;5032844;28;20042;-61
2022/03/13 10:37:07;;;;;;;12.38;5.65;;;13.70;93.40;;;;;;5018634;28;20055;-61
2022/03/13 10:39:34;;;;;;;12.20;6.20;;;13.70;93.50;;;;;;5017432;28;20040;-61
2022/03/13 10:42:03;;;;;;;14.77;6.22;;;13.80;93.70;;;;;;5015423;28;20044;-62
2022/03/13 10:44:34;;;;;;;14.07;6.20;;;13.80;93.80;;;;;;5021327;28;20512;-61
2022/03/13 10:47:05;;;;;;;12.02;5.93;;;13.80;93.40;;;;;;5021823;28;20048;-62
2022/03/13 10:49:36;;;;;;;12.93;5.93;;;13.70;93.50;;;;;;5020056;28;20129;-62
2022/03/13 10:52:22;;;;;;;13.13;5.75;;;13.60;93.50;;;;;;5016126;28;20072;-63
2022/03/13 10:54:48;;;;;;;13.00;6.35;;;13.60;93.70;;;;;;5022435;28;20033;-62
2022/03/13 10:57:14;;;;;;;10.40;5.13;;;13.70;93.80;;;;;;5018254;28;20389;-62
2022/03/13 10:59:41;;;;;;;15.90;5.38;;;13.80;93.60;;;;;;5021625;28;20132;-63
2022/03/13 11:02:24;;;;;;;12.50;5.80;;;13.80;93.50;;;;;;5017539;28;20034;-63
2022/03/13 11:04:53;;;;;;;12.23;6.30;;;13.90;93.70;;;;;;5022453;28;20041;-63
2022/03/13 11:07:20;;;;;;;13.27;6.15;;;14.00;93.50;;;;;;5020195;28;20033;-63
2022/03/13 11:09:46;;;;;;;14.68;5.90;;;14.10;94.00;;;;;;5018679;28;20045;-61
2022/03/13 11:12:20;;;;;;;12.88;5.60;;;14.20;93.60;;;;;;5020571;28;20117;-61
2022/03/13 11:14:52;;;;;;;10.48;5.35;;;14.30;93.00;;;;;;5017333;28;20041;-62
2022/03/13 11:17:23;;;;;;;12.52;5.60;;;14.40;93.60;;;;;;5019036;28;20033;-62
2022/03/13 11:19:51;;;;;;;12.02;5.47;;;14.50;93.50;;;;;;5016573;28;20434;-62
2022/03/13 11:22:20;;;;;;;12.00;5.63;;;14.60;92.60;;;;;;5016157;28;20038;-63
2022/03/13 11:24:50;;;;;;;11.90;5.18;;;14.50;92.50;;;;;;5016955;28;20502;-61
2022/03/13 11:27:16;;;;;;;9.07;4.70;;;14.50;92.50;;;;;;5018248;28;20111;-61
2022/03/13 11:29:52;;;;;;;12.82;5.72;;;14.50;92.80;;;;;;5017716;28;20062;-62
2022/03/13 11:32:33;;;;;;;10.55;5.13;;;14.60;92.40;;;;;;5021624;28;20044;-62
2022/03/13 11:35:13;;;;;;;11.63;5.40;;;14.50;92.30;;;;;;5019709;28;20092;-61
2022/03/13 11:37:45;;;;;;;11.05;5.35;;;14.60;92.40;;;;;;5025819;28;20069;-61
2022/03/13 11:40:14;;;;;;;14.50;5.93;;;14.70;92.50;;;;;;5020165;28;20060;-61
2022/03/13 11:42:48;;;;;;;11.57;5.50;;;14.70;92.50;;;;;;5023494;28;20486;-61
2022/03/13 11:45:30;;;;;;;9.57;5.45;;;14.80;92.20;;;;;;5053896;28;20041;-61
2022/03/13 11:48:04;;;;;;;11.30;5.57;;;14.80;92.30;;;;;;5021875;28;20034;-61
2022/03/13 11:50:48;;;;;;;13.82;5.40;;;14.70;91.70;;;;;;5021535;28;20038;-61
2022/03/13 11:53:20;;;;;;;11.07;5.32;;;14.70;91.60;;;;;;5026010;28;20100;-62
2022/03/13 11:56:01;;;;;;;12.10;5.55;;;14.60;91.80;;;;;;5038425;28;20048;-61
2022/03/13 11:58:39;;;;;;;;;;;14.70;91.50;;;;;;5023501;28;20044;-62
2022/03/13 12:01:15;;;;;;;13.23;5.50;;;14.70;91.90;;;;;;5024286;28;20004;-63
2022/03/13 12:04:09;;;;;;;12.20;5.55;;;14.80;91.90;;;;;;5028466;28;20029;-63
2022/03/13 12:06:43;;;;;;;14.52;5.35;;;14.90;92.10;;;;;;5023202;28;20033;-62
2022/03/13 12:09:11;;;;;;;12.68;6.00;;;15.00;91.40;;;;;;5024910;28;22214;-61
2022/03/13 12:11:41;;;;;;;12.65;5.45;;;15.00;91.40;;;;;;5019630;28;20030;-60
2022/03/13 12:14:12;;;;;;;11.10;5.05;;;14.90;91.30;;;;;;5019739;28;20034;-62
2022/03/13 12:16:41;;;;;;;14.68;5.15;;;15.00;91.00;;;;;;5039160;28;20459;-61
2022/03/13 12:19:08;;;;;;;12.73;4.88;;;15.00;91.20;;;;;;5020839;28;20544;-63
2022/03/13 12:21:34;;;;;;;10.30;5.25;;;15.00;91.30;;;;;;5020806;28;20041;-61
2022/03/13 12:24:15;;;;;;;12.45;5.22;;;15.00;91.60;;;;;;5023970;28;20033;-62
2022/03/13 12:26:45;;;;;;;9.50;4.55;;;15.10;91.00;;;;;;5024776;28;20041;-61
2022/03/13 12:29:17;;;;;;;8.55;4.18;;;15.20;91.30;;;;;;5021057;28;20038;-62
2022/03/13 12:31:48;;;;;;;10.80;5.18;;;15.20;90.80;;;;;;5022786;28;20045;-63
2022/03/13 12:34:26;;;;;;;10.63;4.53;;;15.20;90.70;;;;;;5020211;28;20034;-62
2022/03/13 12:36:53;;;;;;;10.15;4.72;;;15.20;90.50;;;;;;5019328;28;20034;-62
2022/03/13 12:39:20;;;;;;;9.93;4.45;;;15.10;90.60;;;;;;5022026;28;20041;-61
2022/03/13 12:41:54;;;;;;;13.52;5.05;;;15.10;90.80;;;;;;5022083;28;20037;-62
2022/03/13 12:44:21;;;;;;;9.57;4.20;;;15.10;91.10;;;;;;5023056;28;20352;-61